Portada
METAR-TAF:

METAR-TAF

Aeroports :

Ulan Bator, Mongòlia

latitud: 47-55N, longitud: 106-52E, altitud: 1306 m

Observació

L'informe es va fer fa 26 minuts, a les 08:30 UTC
Vent 12 kt del Nord/Nord-Oest
Temperatura -2°C
Humitat 50%
Pressió 1024 hPa
Visibilitat 10 km o més
Escasses núvols a una alçada de 3300 ft

METAR: ZMUB 230830Z 33006MPS 9999 FEW033 M02/M11 Q1024 NOSIG RMK QFE660.1 48 MOP

Hora: 16:56 (08:56 UTC)

Pronòstic

L'informe es va fer fa 4 hores i 14 minuts, a les 04:42 UTC
Pronòstic vàlid del 23 a les 06 UTC al 24 a les 12 UTC
Vent 12 kt del Nord/Nord-Oest
Visibilitat 10 km o més
Núvols disperses a una alçada de 3300 ft
Evolucionant progressivament
l' 23 a les 09 UTC al 23 a les 11 UTC
Vent 4 kt amb direcció variable

TAF: ZMUB 230442Z 2306/2412 33006MPS 9999 SCT033 TXM01/2306Z TNM15/2323Z BECMG 2309/2311 VRB02MPS

Observacions i pronòstics meteorològics de més de 4000 aeroports (METAR i TAF).

Les estacions disponibles són els punts grocs i vermells al mapa.

Posi el ratolí al punt desitjat per veure el nom de l'estació.

Feu clic per veure les observacions i els pronòstics meteorològics.

Per canviar el mapa: feu clic els botons verds amb una creu de color negre per apropar; al botó verd amb un guió per allunyar la imatge; o en les fletxes verdes per a mapes adjacents.


METAR-TAF: